Time;durP1;ratioP1;P1;durP2;ratioP2;P2;SDS_P1;SDS_P2;PMS_P1;PMS_P2;Temp;Humidity;BMP_temperature;BMP_pressure;BME280_temperature;BME280_humidity;BME280_pressure;Samples;Min_cycle;Max_cycle;Signal;HPM_P1;HPM_P2
2022/12/29 00:01:34;;;;;;;7;5;;;;;;;0.11;100;937.7569;;;;
2022/12/29 00:04:00;;;;;;;7.2;4.9;;;;;;;0.13;100;937.7877;;;;
2022/12/29 00:06:30;;;;;;;12.8;8.7;;;;;;;0.18;100;937.841;;;;
2022/12/29 00:09:02;;;;;;;6.6;4.7;;;;;;;0.26;99.61426;937.8418;;;;
2022/12/29 00:11:31;;;;;;;7.5;5.6;;;;;;;0.27;99.11426;937.7335;;;;
2022/12/29 00:16:54;;;;;;;6.4;4.4;;;;;;;0.43;98.41699;937.7452;;;;
2022/12/29 00:36:35;;;;;;;5.9;4.2;;;;;;;0.1;98.0625;937.5648;;;;
2022/12/29 00:44:09;;;;;;;4.9;2.9;;;;;;;0.02;99.01074;937.5225;;;;
2022/12/29 00:46:16;;;;;;;3.8;2.5;;;;;;;0.07;98.85645;937.5045;;;;
2022/12/29 00:51:06;;;;;;;2.7;2.3;;;;;;;0.09;99.0293;937.4196;;;;
2022/12/29 00:53:35;;;;;;;2.7;1.8;;;;;;;0.17;99.10254;937.471;;;;
2022/12/29 00:56:00;;;;;;;1.9;1.6;;;;;;;0.33;98.67188;937.467;;;;
2022/12/29 00:58:27;;;;;;;1.6;1.3;;;;;;;0.45;97.83008;937.5328;;;;
2022/12/29 01:00:52;;;;;;;1.9;1.7;;;;;;;0.44;97.38379;937.4113;;;;
2022/12/29 01:03:19;;;;;;;3.3;1.8;;;;;;;0.41;96.8291;937.445;;;;
2022/12/29 01:05:44;;;;;;;2.2;1.7;;;;;;;0.38;96.6875;937.4822;;;;
2022/12/29 01:08:09;;;;;;;3.6;2;;;;;;;0.38;96.64453;937.5514;;;;
2022/12/29 01:10:36;;;;;;;3.7;2.1;;;;;;;0.37;96.43945;937.5008;;;;
2022/12/29 01:13:01;;;;;;;2.1;1.9;;;;;;;0.29;96.67969;937.5176;;;;
2022/12/29 01:15:39;;;;;;;2.1;1.9;;;;;;;0.38;96.17383;937.5229;;;;
2022/12/29 01:18:06;;;;;;;1.9;1.5;;;;;;;0.55;94.95508;937.5941;;;;
2022/12/29 01:20:31;;;;;;;1.8;1.6;;;;;;;0.62;94.18848;937.5808;;;;
2022/12/29 01:23:00;;;;;;;2.2;1.5;;;;;;;0.57;94.40137;937.5822;;;;
2022/12/29 01:25:26;;;;;;;3.1;1.9;;;;;;;0.53;94.40234;937.6079;;;;
2022/12/29 01:27:52;;;;;;;4.9;2.8;;;;;;;0.43;94.9043;937.6847;;;;
2022/12/29 01:30:17;;;;;;;5;2.8;;;;;;;0.4;94.90918;937.6789;;;;
2022/12/29 01:32:42;;;;;;;6.1;3;;;;;;;0.48;94.88086;937.6892;;;;
2022/12/29 01:35:07;;;;;;;4.7;2.8;;;;;;;0.61;94.11914;937.6617;;;;
2022/12/29 01:37:33;;;;;;;4.6;3.2;;;;;;;0.53;94.38184;937.6135;;;;
2022/12/29 01:40:00;;;;;;;4.8;2.7;;;;;;;0.6;94.03906;937.5951;;;;
2022/12/29 01:42:25;;;;;;;3;2.2;;;;;;;0.72;93.57422;937.6166;;;;
2022/12/29 01:45:00;;;;;;;4.9;2.8;;;;;;;0.63;93.7334;937.5689;;;;
2022/12/29 01:47:25;;;;;;;4.2;2.7;;;;;;;0.62;93.52051;937.6531;;;;
2022/12/29 01:49:54;;;;;;;3.8;2.4;;;;;;;0.58;93.29688;937.5701;;;;
2022/12/29 01:52:19;;;;;;;4.2;2.6;;;;;;;0.65;93.25684;937.5854;;;;
2022/12/29 01:54:47;;;;;;;4.1;2.7;;;;;;;0.72;92.77344;937.5823;;;;
2022/12/29 01:57:12;;;;;;;4.5;2.9;;;;;;;0.73;92.79492;937.6014;;;;
2022/12/29 01:59:39;;;;;;;4.8;3.3;;;;;;;0.62;92.79395;937.5876;;;;
2022/12/29 02:02:05;;;;;;;5.3;3.4;;;;;;;0.55;93.4248;937.6103;;;;
2022/12/29 02:04:30;;;;;;;5.2;3.6;;;;;;;0.39;94.17188;937.6389;;;;
2022/12/29 02:06:57;;;;;;;5.1;3.5;;;;;;;0.31;94.66602;937.535;;;;
2022/12/29 02:09:23;;;;;;;6.6;4;;;;;;;0.29;94.71777;937.4613;;;;
2022/12/29 02:11:49;;;;;;;4.9;3.3;;;;;;;0.22;95.15625;937.4679;;;;
2022/12/29 02:14:13;;;;;;;5.3;3.1;;;;;;;0.29;95.1416;937.4101;;;;
2022/12/29 02:16:41;;;;;;;4.7;2.8;;;;;;;0.06;95.5918;937.4878;;;;
2022/12/29 02:19:06;;;;;;;5;3.2;;;;;;;0.12;96.00488;937.5244;;;;
2022/12/29 02:21:40;;;;;;;4.8;3.2;;;;;;;0.17;95.78125;937.6117;;;;
2022/12/29 02:24:45;;;;;;;6.8;3.5;;;;;;;0.07;96.07129;937.4977;;;;
2022/12/29 02:27:19;;;;;;;18.1;16.2;;;;;;;0.07;96.28223;937.4897;;;;
2022/12/29 02:29:44;;;;;;;7.1;3.9;;;;;;;0.03;96.33008;937.5427;;;;
2022/12/29 02:32:09;;;;;;;4.6;3;;;;;;;-0.05;96.35449;937.5095;;;;
2022/12/29 02:37:00;;;;;;;3.9;2.6;;;;;;;-0.21;97.7793;937.5112;;;;
2022/12/29 02:39:25;;;;;;;6;3.3;;;;;;;-0.13;97.49609;937.5659;;;;
2022/12/29 02:41:50;;;;;;;5.6;2.9;;;;;;;-0.14;97.52734;937.4881;;;;
2022/12/29 02:44:15;;;;;;;4.5;2.9;;;;;;;0.01;97.00586;937.5292;;;;
2022/12/29 02:46:40;;;;;;;4.1;2.7;;;;;;;0.08;96.05078;937.6012;;;;
2022/12/29 02:49:05;;;;;;;4.6;2.4;;;;;;;0.06;96.28027;937.5401;;;;
2022/12/29 02:51:30;;;;;;;4.4;2.2;;;;;;;0.12;95.9834;937.5072;;;;
2022/12/29 02:56:21;;;;;;;4.5;2.6;;;;;;;0.26;95.09961;937.5865;;;;
2022/12/29 02:58:46;;;;;;;3.4;2.2;;;;;;;0.21;95.07617;937.4894;;;;
2022/12/29 03:01:11;;;;;;;2.6;1.9;;;;;;;0.17;95.31348;937.4961;;;;
2022/12/29 03:03:36;;;;;;;2.5;2.1;;;;;;;0.15;95.36523;937.4191;;;;
2022/12/29 03:06:01;;;;;;;2.3;2.1;;;;;;;0.21;95.12305;937.492;;;;
2022/12/29 03:08:26;;;;;;;2.3;1.9;;;;;;;0.24;94.41602;937.392;;;;
2022/12/29 03:10:52;;;;;;;2.2;1.9;;;;;;;0.06;95.15723;937.3164;;;;
2022/12/29 03:16:04;;;;;;;2.9;2.1;;;;;;;-0.03;96.2041;937.3839;;;;
2022/12/29 03:18:10;;;;;;;3.5;2.4;;;;;;;0.01;96.06738;937.3067;;;;
2022/12/29 03:20:35;;;;;;;2.5;2;;;;;;;0.05;95.62109;937.3339;;;;
2022/12/29 03:23:03;;;;;;;2.5;2.1;;;;;;;-0.12;96.26172;937.312;;;;
2022/12/29 03:25:28;;;;;;;2.8;2.3;;;;;;;-0.03;96.30469;937.3541;;;;
2022/12/29 03:27:57;;;;;;;3.4;2;;;;;;;0.03;95.83789;937.3702;;;;
2022/12/29 03:30:22;;;;;;;2.5;1.8;;;;;;;-0.03;95.9502;937.3566;;;;
2022/12/29 03:35:42;;;;;;;2.9;1.7;;;;;;;-0.05;96.62305;937.2662;;;;
2022/12/29 03:38:08;;;;;;;2.7;1.8;;;;;;;-0.13;96.82715;937.3353;;;;
2022/12/29 03:40:33;;;;;;;2.4;1.7;;;;;;;-0.18;97.18262;937.2766;;;;
2022/12/29 03:42:58;;;;;;;1.8;1.5;;;;;;;-0.21;97.32129;937.2153;;;;
2022/12/29 03:45:25;;;;;;;2.2;1.7;;;;;;;-0.15;97.23535;937.2405;;;;
2022/12/29 03:47:50;;;;;;;2.1;1.7;;;;;;;-0.16;97.32031;937.1858;;;;
2022/12/29 03:50:17;;;;;;;2.7;1.8;;;;;;;-0.22;97.58789;937.1781;;;;
2022/12/29 03:52:42;;;;;;;2.4;2;;;;;;;-0.21;97.61035;937.1174;;;;
2022/12/29 03:55:10;;;;;;;2.4;1.9;;;;;;;-0.08;96.93848;937.1489;;;;
2022/12/29 03:57:35;;;;;;;2.1;1.6;;;;;;;-0.02;96.58691;937.2413;;;;
2022/12/29 04:00:02;;;;;;;2.8;1.9;;;;;;;-0.02;96.11914;937.2012;;;;
2022/12/29 04:02:33;;;;;;;2.2;1.8;;;;;;;-0.18;96.53711;937.2271;;;;
2022/12/29 04:05:03;;;;;;;2.2;1.8;;;;;;;-0.21;96.61035;937.2406;;;;
2022/12/29 04:07:28;;;;;;;1.7;1.6;;;;;;;-0.32;97.46289;937.2141;;;;
2022/12/29 04:09:59;;;;;;;2.5;1.9;;;;;;;-0.44;98.39258;937.204;;;;
2022/12/29 04:12:30;;;;;;;3;2;;;;;;;-0.51;98.71875;937.1778;;;;
2022/12/29 04:15:04;;;;;;;2.3;1.6;;;;;;;-0.44;98.9248;937.2095;;;;
2022/12/29 04:17:29;;;;;;;2.1;1.6;;;;;;;-0.41;98.33203;937.1749;;;;
2022/12/29 04:20:59;;;;;;;3;1.7;;;;;;;-0.39;98.52539;937.231;;;;
2022/12/29 04:22:22;;;;;;;3.3;2.1;;;;;;;-0.39;98.61719;937.2297;;;;
2022/12/29 04:24:47;;;;;;;2.9;2.3;;;;;;;-0.32;98.34277;937.2463;;;;
2022/12/29 04:27:13;;;;;;;4.6;2.6;;;;;;;-0.2;97.6123;937.2017;;;;
2022/12/29 04:29:38;;;;;;;7.5;3.3;;;;;;;-0.16;96.68555;937.2619;;;;
2022/12/29 04:32:05;;;;;;;7.7;3.1;;;;;;;-0.19;96.63477;937.2767;;;;
2022/12/29 04:34:30;;;;;;;4.8;2.9;;;;;;;-0.05;95.78809;937.2561;;;;
2022/12/29 04:36:58;;;;;;;3.9;2.7;;;;;;;-0.06;95.47461;937.2206;;;;
2022/12/29 04:39:23;;;;;;;3.5;2.7;;;;;;;-0.01;95.64063;937.2109;;;;
2022/12/29 04:41:50;;;;;;;3.8;2.9;;;;;;;0.11;95.23438;937.1238;;;;
2022/12/29 04:44:15;;;;;;;3.8;2.7;;;;;;;0.13;95.16016;937.1473;;;;
2022/12/29 04:46:40;;;;;;;2.7;1.9;;;;;;;0.33;94.15723;937.1616;;;;
2022/12/29 04:49:08;;;;;;;3;2;;;;;;;0.46;93.34961;937.1035;;;;
2022/12/29 04:51:30;;;;;;;2.2;1.4;;;;;;;0.48;92.75098;937.0477;;;;
2022/12/29 04:53:58;;;;;;;1.5;1.4;;;;;;;0.61;91.63184;937.1111;;;;
2022/12/29 04:56:23;;;;;;;1.7;1.4;;;;;;;0.71;91.80762;937.0709;;;;
2022/12/29 04:58:49;;;;;;;1.8;1.4;;;;;;;0.65;92.25293;937.0903;;;;
2022/12/29 05:01:15;;;;;;;1.9;1.5;;;;;;;0.58;92.56055;937.0719;;;;
2022/12/29 05:03:41;;;;;;;1.7;1.5;;;;;;;0.61;92.79199;937.097;;;;
2022/12/29 05:06:48;;;;;;;1.5;1.4;;;;;;;0.68;92.67383;937.097;;;;
2022/12/29 05:09:16;;;;;;;3.9;2.8;;;;;;;0.66;92.81445;937.1017;;;;
2022/12/29 05:11:41;;;;;;;5.2;3.3;;;;;;;0.68;92.45996;937.0554;;;;
2022/12/29 05:14:08;;;;;;;2.7;2.1;;;;;;;0.64;92.80859;937.0724;;;;
2022/12/29 05:16:33;;;;;;;2.6;2.2;;;;;;;0.64;92.84473;936.9905;;;;
2022/12/29 05:19:01;;;;;;;3;2;;;;;;;0.65;93.06738;937.1114;;;;
2022/12/29 05:21:26;;;;;;;2.7;2;;;;;;;0.64;93.55859;937.0577;;;;
2022/12/29 05:23:53;;;;;;;2;1.8;;;;;;;0.62;93.21973;937.027;;;;
2022/12/29 05:26:18;;;;;;;1.7;1.6;;;;;;;0.64;93.06738;937.0131;;;;
2022/12/29 05:28:47;;;;;;;2.8;1.8;;;;;;;0.8;92.65527;936.9916;;;;
2022/12/29 05:31:12;;;;;;;2;1.7;;;;;;;0.86;91.35156;936.9885;;;;
2022/12/29 05:33:39;;;;;;;2;1.8;;;;;;;1.09;89.54688;936.9498;;;;
2022/12/29 05:36:04;;;;;;;1.5;1.4;;;;;;;1.08;89.68945;936.9111;;;;
2022/12/29 05:38:30;;;;;;;2.3;1.7;;;;;;;0.98;90.4834;936.9558;;;;
2022/12/29 05:41:00;;;;;;;3;2.2;;;;;;;0.9;91.125;936.9767;;;;
2022/12/29 05:43:25;;;;;;;3.7;2.6;;;;;;;0.84;91.68262;936.9295;;;;
2022/12/29 05:45:53;;;;;;;4.2;2.9;;;;;;;0.7;92.35449;936.928;;;;
2022/12/29 05:48:53;;;;;;;2.9;2.3;;;;;;;0.66;92.54492;936.9292;;;;
2022/12/29 05:51:25;;;;;;;3.2;2.3;;;;;;;0.5;93.20313;936.9297;;;;
2022/12/29 05:53:54;;;;;;;2.9;1.9;;;;;;;0.69;91.87207;936.9242;;;;
2022/12/29 05:56:19;;;;;;;2;1.6;;;;;;;0.86;90.66895;936.8872;;;;
2022/12/29 05:58:46;;;;;;;3.1;1.9;;;;;;;0.88;90.70801;936.8711;;;;
2022/12/29 06:01:11;;;;;;;2.5;1.8;;;;;;;0.75;91.19434;936.8767;;;;
2022/12/29 06:03:42;;;;;;;2.8;2.1;;;;;;;0.62;91.94629;936.9415;;;;
2022/12/29 06:06:15;;;;;;;1.6;1.5;;;;;;;0.65;91.07031;936.8293;;;;
2022/12/29 06:08:44;;;;;;;3.3;2.1;;;;;;;0.77;91.09766;936.8391;;;;
2022/12/29 06:11:09;;;;;;;5.7;3.8;;;;;;;0.75;91.10547;936.8194;;;;
2022/12/29 06:13:39;;;;;;;4.7;3.2;;;;;;;0.74;90.97852;936.7892;;;;
2022/12/29 06:16:04;;;;;;;2.9;2.6;;;;;;;0.78;91.08887;936.6595;;;;
2022/12/29 06:18:29;;;;;;;3;2.4;;;;;;;0.7;91.34961;936.8167;;;;
2022/12/29 06:20:58;;;;;;;5.3;3.7;;;;;;;0.56;92.52539;936.782;;;;
2022/12/29 06:23:23;;;;;;;6.2;4.2;;;;;;;0.44;93.24512;936.7141;;;;
2022/12/29 06:25:51;;;;;;;4.7;4.1;;;;;;;0.48;93.39941;936.7519;;;;
2022/12/29 06:28:17;;;;;;;4.1;3.7;;;;;;;0.47;93.61914;936.7903;;;;
2022/12/29 06:30:45;;;;;;;2.4;2.2;;;;;;;0.52;92.69434;936.748;;;;
2022/12/29 06:33:10;;;;;;;3.3;2.3;;;;;;;0.75;91.88574;936.6661;;;;
2022/12/29 06:35:42;;;;;;;2.7;2.2;;;;;;;0.87;90.30469;936.5898;;;;
2022/12/29 06:38:13;;;;;;;3.7;2.8;;;;;;;1.05;89.18164;936.6339;;;;
2022/12/29 06:40:44;;;;;;;3.3;2.7;;;;;;;1.15;88.17285;936.521;;;;
2022/12/29 06:43:14;;;;;;;4.4;3.5;;;;;;;1.02;88.32715;936.577;;;;
2022/12/29 06:46:02;;;;;;;6;4.4;;;;;;;0.99;88.1748;936.5369;;;;
2022/12/29 06:48:32;;;;;;;5.1;3.7;;;;;;;0.76;89.73438;936.4981;;;;
2022/12/29 06:50:57;;;;;;;6.2;4.8;;;;;;;0.84;90.08496;936.4459;;;;
2022/12/29 06:53:26;;;;;;;5.5;4.1;;;;;;;0.79;90.38574;936.4551;;;;
2022/12/29 06:55:52;;;;;;;4.9;3.8;;;;;;;0.83;90.26074;936.4414;;;;
2022/12/29 06:58:17;;;;;;;5.2;4.1;;;;;;;0.85;90.49023;936.4479;;;;
2022/12/29 07:00:43;;;;;;;5.2;3.6;;;;;;;0.73;90.68848;936.489;;;;
2022/12/29 07:03:08;;;;;;;4.4;3.5;;;;;;;0.81;90.87109;936.4988;;;;
2022/12/29 07:05:39;;;;;;;3.6;2.9;;;;;;;0.77;91.27637;936.5642;;;;
2022/12/29 07:08:08;;;;;;;3.4;2.9;;;;;;;0.94;89.90625;936.567;;;;
2022/12/29 07:10:39;;;;;;;3.3;2.5;;;;;;;1.1;89.39355;936.5756;;;;
2022/12/29 07:13:04;;;;;;;3.6;3.3;;;;;;;1.31;88.51074;936.6566;;;;
2022/12/29 07:15:38;;;;;;;3.7;2.2;;;;;;;1.58;85.89453;936.568;;;;
2022/12/29 07:18:04;;;;;;;4.2;2.6;;;;;;;1.79;84.76172;936.5377;;;;
2022/12/29 07:20:35;;;;;;;4.4;3.1;;;;;;;1.87;85.50586;936.6227;;;;
2022/12/29 07:23:04;;;;;;;6.1;3.6;;;;;;;1.8;84.62988;936.6663;;;;
2022/12/29 07:25:29;;;;;;;10.5;7;;;;;;;1.69;85.40234;936.741;;;;
2022/12/29 07:27:58;;;;;;;13.1;8.5;;;;;;;1.56;86.57324;936.7824;;;;
2022/12/29 07:30:23;;;;;;;15.1;10;;;;;;;1.57;86.62891;936.7967;;;;
2022/12/29 07:32:50;;;;;;;16.7;10.9;;;;;;;1.49;87.25098;936.8095;;;;
2022/12/29 07:35:15;;;;;;;17.3;11.2;;;;;;;1.43;87.30566;936.8728;;;;
2022/12/29 07:37:44;;;;;;;19.6;11.5;;;;;;;1.35;87.52344;936.896;;;;
2022/12/29 07:40:09;;;;;;;16.7;10.5;;;;;;;1.36;88.11719;936.817;;;;
2022/12/29 07:42:38;;;;;;;14.2;9;;;;;;;1.43;87.79688;936.778;;;;
2022/12/29 07:45:03;;;;;;;15.9;10.7;;;;;;;1.4;87.87012;936.8627;;;;
2022/12/29 07:47:31;;;;;;;15.7;10.2;;;;;;;1.38;88.13281;936.7756;;;;
2022/12/29 07:50:01;;;;;;;16.5;10.2;;;;;;;1.38;88.3916;936.8565;;;;
2022/12/29 07:52:26;;;;;;;13.2;9.3;;;;;;;1.38;88.47852;936.8226;;;;
2022/12/29 07:54:54;;;;;;;13.3;8.5;;;;;;;1.29;88.91797;936.8982;;;;
2022/12/29 07:57:19;;;;;;;13.5;8.7;;;;;;;1.31;89.14551;936.9161;;;;
2022/12/29 07:59:45;;;;;;;15.9;10.7;;;;;;;1.34;89.21973;936.9064;;;;
2022/12/29 08:02:11;;;;;;;13.9;9.3;;;;;;;1.39;89.12891;936.8552;;;;
2022/12/29 08:04:37;;;;;;;15.4;10.4;;;;;;;1.48;88.92676;936.8679;;;;
2022/12/29 08:07:02;;;;;;;15.6;10.3;;;;;;;1.45;89.5127;936.9067;;;;
2022/12/29 08:09:32;;;;;;;16.4;11.3;;;;;;;1.41;89.45898;937.0209;;;;
2022/12/29 08:11:57;;;;;;;12.4;7.8;;;;;;;1.47;89.41406;936.9318;;;;
2022/12/29 08:14:28;;;;;;;14.6;10.3;;;;;;;1.63;89.32617;937.0336;;;;
2022/12/29 08:16:58;;;;;;;13.8;9.9;;;;;;;1.74;88.0752;937.0324;;;;
2022/12/29 08:19:26;;;;;;;13.1;9.8;;;;;;;1.83;87.9043;936.9776;;;;
2022/12/29 08:21:56;;;;;;;5.2;4.2;;;;;;;2.17;84.09863;937.0444;;;;
2022/12/29 08:24:21;;;;;;;3.7;2.9;;;;;;;2.5;81.00488;937.1291;;;;
2022/12/29 08:26:50;;;;;;;3.7;3.1;;;;;;;3.06;76.73438;937.0447;;;;
2022/12/29 08:29:15;;;;;;;4.8;3.2;;;;;;;3.28;75.5625;937.0937;;;;
2022/12/29 08:31:42;;;;;;;3.6;2.4;;;;;;;3.37;74.35547;937.0731;;;;
2022/12/29 08:34:07;;;;;;;3.6;3.3;;;;;;;3.63;73.80566;936.9606;;;;
2022/12/29 08:36:36;;;;;;;3;2.6;;;;;;;3.61;74.23926;936.9802;;;;
2022/12/29 08:39:01;;;;;;;2.7;1.9;;;;;;;3.76;74.01855;937.0086;;;;
2022/12/29 08:41:30;;;;;;;3.6;2.2;;;;;;;3.86;74.06934;937.1217;;;;
2022/12/29 08:43:59;;;;;;;3.3;2.8;;;;;;;4.17;73.45898;937.0941;;;;
2022/12/29 08:46:25;;;;;;;4;3.3;;;;;;;4.52;72;937.1464;;;;
2022/12/29 08:48:54;;;;;;;3.2;2.9;;;;;;;4.74;71.87891;937.1301;;;;
2022/12/29 08:51:22;;;;;;;4.2;2.9;;;;;;;4.97;68.81836;937.1569;;;;
2022/12/29 08:53:48;;;;;;;5.2;3.9;;;;;;;5.11;69.91211;937.1328;;;;
2022/12/29 08:56:14;;;;;;;7;5.1;;;;;;;5.15;70.78711;937.1552;;;;
2022/12/29 08:58:40;;;;;;;7;5.6;;;;;;;5.29;70.95801;937.1255;;;;
2022/12/29 09:01:08;;;;;;;9.6;6.9;;;;;;;5.13;72.85742;937.16;;;;
2022/12/29 09:03:33;;;;;;;8.3;7;;;;;;;5.13;72.62012;937.1947;;;;
2022/12/29 09:06:02;;;;;;;10.2;7.2;;;;;;;4.87;74.25684;937.2969;;;;
2022/12/29 09:08:27;;;;;;;10;7.2;;;;;;;4.84;75.11816;937.3156;;;;
2022/12/29 09:10:52;;;;;;;11;7.6;;;;;;;4.86;75.53906;937.2272;;;;
2022/12/29 09:13:17;;;;;;;49.8;27.2;;;;;;;4.82;75.35254;937.2608;;;;
2022/12/29 09:15:49;;;;;;;48.9;26.3;;;;;;;4.82;75.90332;937.2582;;;;
2022/12/29 09:18:15;;;;;;;43.3;24.2;;;;;;;4.82;75.46387;937.2929;;;;
2022/12/29 09:20:43;;;;;;;29.7;18.4;;;;;;;4.61;76.75586;937.3024;;;;
2022/12/29 09:23:08;;;;;;;13.7;9.3;;;;;;;4.55;77.2627;937.2852;;;;
2022/12/29 09:25:36;;;;;;;14.9;9.9;;;;;;;4.68;77.50098;937.3068;;;;
2022/12/29 09:28:08;;;;;;;12.4;8.6;;;;;;;4.73;77.63281;937.3209;;;;
2022/12/29 09:30:42;;;;;;;9.9;7.3;;;;;;;4.63;77.19727;937.3098;;;;
2022/12/29 09:33:07;;;;;;;12.9;10.5;;;;;;;4.37;77.71582;937.3008;;;;
2022/12/29 09:35:39;;;;;;;11.9;9;;;;;;;4.58;77.33496;937.2783;;;;
2022/12/29 09:38:04;;;;;;;29.3;17.2;;;;;;;4.75;77.17676;937.2269;;;;
2022/12/29 09:40:35;;;;;;;17.3;10.4;;;;;;;4.94;76.63574;937.1774;;;;
2022/12/29 09:43:00;;;;;;;9.3;6.7;;;;;;;4.99;76.81152;937.2971;;;;
2022/12/29 09:45:26;;;;;;;8.5;5.6;;;;;;;4.97;76.5293;937.3164;;;;
2022/12/29 09:47:51;;;;;;;9.3;5.6;;;;;;;4.98;77.9834;937.2818;;;;
2022/12/29 09:50:19;;;;;;;7.6;5.2;;;;;;;4.89;77.88867;937.2712;;;;
2022/12/29 09:52:45;;;;;;;7.5;5.5;;;;;;;4.96;76.26758;937.212;;;;
2022/12/29 09:55:12;;;;;;;9.1;5.7;;;;;;;5.19;76.69043;937.243;;;;
2022/12/29 09:57:37;;;;;;;7.4;5.6;;;;;;;5.43;76.10254;937.2375;;;;
2022/12/29 10:00:04;;;;;;;6.6;4.9;;;;;;;5.4;76.86328;937.1937;;;;
2022/12/29 10:02:27;;;;;;;7.3;4.3;;;;;;;5.3;77.94141;937.1959;;;;
2022/12/29 10:04:52;;;;;;;7.5;5.1;;;;;;;5.27;77.42871;937.2054;;;;
2022/12/29 10:07:18;;;;;;;8;5.8;;;;;;;5.36;78.30078;937.1311;;;;
2022/12/29 10:09:43;;;;;;;8.5;5.4;;;;;;;5.45;77.49219;937.0934;;;;
2022/12/29 10:12:08;;;;;;;10.9;7;;;;;;;5.55;77.47852;936.9461;;;;
2022/12/29 10:14:33;;;;;;;12;8.6;;;;;;;5.63;76.61426;936.9012;;;;
2022/12/29 10:16:58;;;;;;;13.9;9.5;;;;;;;5.66;76.70703;937.0156;;;;
2022/12/29 10:19:25;;;;;;;17.5;10.4;;;;;;;5.76;75.88965;936.9074;;;;
2022/12/29 10:21:51;;;;;;;22.8;12.7;;;;;;;5.89;74.98926;936.81;;;;
2022/12/29 10:24:16;;;;;;;18.8;11;;;;;;;6.06;74.79004;936.8257;;;;
2022/12/29 10:26:42;;;;;;;22.2;11.1;;;;;;;6.1;74.00684;936.7681;;;;
2022/12/29 10:29:12;;;;;;;27.9;14.7;;;;;;;6.23;73.83789;936.7762;;;;
2022/12/29 10:31:37;;;;;;;26;13.3;;;;;;;6.29;74.05078;936.7562;;;;
2022/12/29 10:34:06;;;;;;;19.7;11.6;;;;;;;6.37;74.39453;936.8134;;;;
2022/12/29 10:36:31;;;;;;;17.1;9.6;;;;;;;6.27;73.45996;936.8205;;;;
2022/12/29 10:39:00;;;;;;;13.3;8.3;;;;;;;6.12;73.91992;936.7012;;;;
2022/12/29 10:41:26;;;;;;;15.2;9.5;;;;;;;6.01;74.14941;936.7762;;;;
2022/12/29 10:43:51;;;;;;;22.1;15;;;;;;;6.07;75.07617;936.7302;;;;
2022/12/29 10:46:22;;;;;;;19.1;12.3;;;;;;;6.05;73.625;936.7045;;;;
2022/12/29 10:48:47;;;;;;;18.2;10;;;;;;;6.06;72.84766;936.6859;;;;
2022/12/29 10:51:15;;;;;;;16.4;11.3;;;;;;;6.16;74.49121;936.707;;;;
2022/12/29 10:53:40;;;;;;;18.8;11.1;;;;;;;6.3;74.80957;936.6394;;;;
2022/12/29 10:56:05;;;;;;;17.1;10.9;;;;;;;6.31;74.07715;936.5986;;;;
2022/12/29 10:58:32;;;;;;;19.5;11.1;;;;;;;6.38;73.41113;936.6001;;;;
2022/12/29 11:00:55;;;;;;;21.2;12;;;;;;;6.51;74.01074;936.4886;;;;
2022/12/29 11:03:21;;;;;;;24;13.9;;;;;;;6.72;73.30957;936.5574;;;;
2022/12/29 11:05:50;;;;;;;13.2;9.3;;;;;;;6.77;71.53027;936.5117;;;;
2022/12/29 11:08:15;;;;;;;14.5;10;;;;;;;6.89;71.8125;936.4456;;;;
2022/12/29 11:10:43;;;;;;;15.3;9.7;;;;;;;7.06;71.75;936.4533;;;;
2022/12/29 11:13:09;;;;;;;15.4;10.1;;;;;;;7.13;71.06934;936.5195;;;;
2022/12/29 11:15:35;;;;;;;17.6;10.5;;;;;;;7.15;70.72266;936.4741;;;;
2022/12/29 11:18:03;;;;;;;20;11.6;;;;;;;7.35;71.17383;936.4501;;;;
2022/12/29 11:20:30;;;;;;;19.1;9.8;;;;;;;7.48;69.70996;936.4623;;;;
2022/12/29 11:22:59;;;;;;;23;10.6;;;;;;;7.62;69.44922;936.4192;;;;
2022/12/29 11:25:24;;;;;;;17.6;8.7;;;;;;;7.7;67.26367;936.3786;;;;
2022/12/29 11:27:51;;;;;;;19.3;11;;;;;;;7.89;67.22363;936.3995;;;;
2022/12/29 11:30:17;;;;;;;15.7;9;;;;;;;7.88;65.89648;936.2805;;;;
2022/12/29 11:32:42;;;;;;;10.3;4.5;;;;;;;8.04;61.97949;936.2839;;;;
2022/12/29 11:35:12;;;;;;;10.7;4.4;;;;;;;8.3;61.41504;936.2866;;;;
2022/12/29 11:37:38;;;;;;;27.1;6.5;;;;;;;8.65;61.1709;936.2217;;;;
2022/12/29 11:40:04;;;;;;;28.5;14.8;;;;;;;8.73;66.20703;936.1839;;;;
2022/12/29 11:42:27;;;;;;;22.8;10.9;;;;;;;8.86;65.04297;936.0524;;;;
2022/12/29 11:44:52;;;;;;;14.2;8.3;;;;;;;8.86;61.68848;935.9936;;;;
2022/12/29 11:47:17;;;;;;;9.6;5.4;;;;;;;8.94;59.8584;935.986;;;;
2022/12/29 11:49:43;;;;;;;13.1;5;;;;;;;9.21;59.81543;935.9431;;;;
2022/12/29 11:52:09;;;;;;;16.2;4.9;;;;;;;9.5;57.82715;935.8464;;;;
2022/12/29 11:54:33;;;;;;;7.2;3.5;;;;;;;9.66;56.44824;935.845;;;;
2022/12/29 11:56:58;;;;;;;8.1;2.6;;;;;;;9.84;54.5918;935.7554;;;;
2022/12/29 11:59:24;;;;;;;12.7;2.6;;;;;;;9.93;52.81152;935.7258;;;;
2022/12/29 12:01:49;;;;;;;5.9;2.5;;;;;;;10.24;53.43262;935.6867;;;;
2022/12/29 12:04:14;;;;;;;8.2;2.5;;;;;;;10.38;51.93164;935.7003;;;;
2022/12/29 12:06:40;;;;;;;5.5;2;;;;;;;10.5;50.25586;935.6344;;;;
2022/12/29 12:09:05;;;;;;;3.3;1.4;;;;;;;10.34;49.08398;935.5457;;;;
2022/12/29 12:11:36;;;;;;;2.2;1.1;;;;;;;10.02;49.62988;935.5072;;;;
2022/12/29 12:13:55;;;;;;;2.7;1;;;;;;;9.59;51.17578;935.3926;;;;
2022/12/29 12:16:20;;;;;;;2.4;1.2;;;;;;;9.52;51.40527;935.3879;;;;
2022/12/29 12:18:45;;;;;;;3;1.3;;;;;;;9.76;52.66699;935.4292;;;;
2022/12/29 12:21:20;;;;;;;2.7;1.1;;;;;;;9.87;50.75293;935.4455;;;;
2022/12/29 12:23:46;;;;;;;6.5;1.9;;;;;;;9.89;50.82422;935.4106;;;;
2022/12/29 12:26:13;;;;;;;4.9;2.1;;;;;;;10.04;51.71875;935.4127;;;;
2022/12/29 12:28:38;;;;;;;6.8;2.4;;;;;;;10.07;52.21387;935.3867;;;;
2022/12/29 12:31:04;;;;;;;6.9;2.3;;;;;;;10.09;51.40625;935.3223;;;;
2022/12/29 12:33:28;;;;;;;2.3;1.1;;;;;;;9.92;50.55371;935.3281;;;;
2022/12/29 12:35:53;;;;;;;5.1;1.3;;;;;;;9.74;52.02539;935.2908;;;;
2022/12/29 12:38:18;;;;;;;2.7;1.2;;;;;;;9.71;52.54492;935.2125;;;;
2022/12/29 12:40:43;;;;;;;2.8;1.8;;;;;;;9.87;53.94434;935.2148;;;;
2022/12/29 12:43:08;;;;;;;9;2.2;;;;;;;9.93;54.94336;935.2056;;;;
2022/12/29 12:45:34;;;;;;;5.8;2.1;;;;;;;9.97;53.80957;935.2433;;;;
2022/12/29 12:47:59;;;;;;;4;1.5;;;;;;;10.06;51.25391;935.183;;;;
2022/12/29 12:50:28;;;;;;;3;1.2;;;;;;;10.13;50.7373;935.1428;;;;
2022/12/29 12:53:26;;;;;;;3.9;1.2;;;;;;;10.14;52.19824;935.1588;;;;
2022/12/29 12:55:51;;;;;;;3.2;1.2;;;;;;;10.06;49.40723;935.1448;;;;
2022/12/29 12:58:16;;;;;;;1.8;1.3;;;;;;;10.01;48.13477;935.1013;;;;
2022/12/29 13:00:44;;;;;;;7.1;2.1;;;;;;;10.22;50.34961;935.0994;;;;
2022/12/29 13:03:10;;;;;;;3.7;1.9;;;;;;;10.34;51.34473;935.0403;;;;
2022/12/29 13:05:37;;;;;;;5.5;1.6;;;;;;;10.42;51.69629;934.9501;;;;
2022/12/29 13:08:02;;;;;;;9.4;2;;;;;;;10.47;51.29102;934.9632;;;;
2022/12/29 13:10:27;;;;;;;1.7;0.9;;;;;;;10.39;46.94434;934.9473;;;;
2022/12/29 13:12:52;;;;;;;1.6;1;;;;;;;10.41;48.05371;934.9483;;;;
2022/12/29 13:15:22;;;;;;;3.1;1.2;;;;;;;10.4;47.57324;934.8989;;;;
2022/12/29 13:17:47;;;;;;;1.8;0.8;;;;;;;10.49;47.32129;934.9418;;;;
2022/12/29 13:20:16;;;;;;;2.2;0.9;;;;;;;10.59;48.43945;934.9031;;;;
2022/12/29 13:22:44;;;;;;;4.2;1.1;;;;;;;10.64;50.35254;934.9483;;;;
2022/12/29 13:25:10;;;;;;;2.6;1.1;;;;;;;10.83;47.5293;934.9277;;;;
2022/12/29 13:27:34;;;;;;;2.2;0.8;;;;;;;10.95;48.24023;934.8921;;;;
2022/12/29 13:29:59;;;;;;;1.7;0.8;;;;;;;10.94;48.52441;934.7997;;;;
2022/12/29 13:32:24;;;;;;;1.8;0.9;;;;;;;11.44;47.62012;934.9096;;;;
2022/12/29 13:34:50;;;;;;;3.4;1;;;;;;;12.63;44.44531;934.8713;;;;
2022/12/29 13:37:14;;;;;;;1.8;1;;;;;;;14.98;37.69531;934.7982;;;;
2022/12/29 13:39:44;;;;;;;2.7;1.5;;;;;;;15.09;38.4209;934.741;;;;
2022/12/29 13:42:09;;;;;;;2.4;1.3;;;;;;;14.13;40.54688;934.8176;;;;
2022/12/29 13:44:34;;;;;;;4.2;1.5;;;;;;;13.64;42.54785;934.7927;;;;
2022/12/29 13:47:02;;;;;;;9.8;2.3;;;;;;;13.53;42.58398;934.818;;;;
2022/12/29 13:49:31;;;;;;;7.1;2;;;;;;;13.02;42.72852;934.8237;;;;
2022/12/29 13:51:56;;;;;;;3.9;1;;;;;;;13.38;43.59277;934.8772;;;;
2022/12/29 13:54:22;;;;;;;0.8;0.8;;;;;;;13.1;41.62305;934.7592;;;;
2022/12/29 13:56:47;;;;;;;1.9;0.8;;;;;;;12.96;43.79004;934.7271;;;;
2022/12/29 13:59:12;;;;;;;3.6;1.6;;;;;;;12.9;44.29004;934.6682;;;;
2022/12/29 14:01:40;;;;;;;6.9;1.9;;;;;;;12.75;45.50293;934.7541;;;;
2022/12/29 14:04:05;;;;;;;9.3;3;;;;;;;12.44;47.67285;934.7216;;;;
2022/12/29 14:06:30;;;;;;;9.9;2.6;;;;;;;12.28;47.76855;934.6675;;;;
2022/12/29 14:08:55;;;;;;;8;4.1;;;;;;;11.61;51.15137;934.7528;;;;
2022/12/29 14:11:24;;;;;;;19.4;11.5;;;;;;;11.2;52.80664;934.657;;;;
2022/12/29 14:13:49;;;;;;;24.2;14.5;;;;;;;10.85;54.23828;934.6115;;;;
2022/12/29 14:16:14;;;;;;;19.7;11.8;;;;;;;10.64;55.41211;934.6967;;;;
2022/12/29 14:18:39;;;;;;;19.9;9.7;;;;;;;10.59;56.00977;934.7104;;;;
2022/12/29 14:21:04;;;;;;;19.1;9.8;;;;;;;10.44;57.09863;934.7043;;;;
2022/12/29 14:23:29;;;;;;;16.5;9.1;;;;;;;10.38;58.89355;934.7285;;;;
2022/12/29 14:25:55;;;;;;;15.2;7.3;;;;;;;10.34;59.04688;934.78;;;;
2022/12/29 14:28:22;;;;;;;13.4;7.3;;;;;;;10.29;59.21094;934.7257;;;;
2022/12/29 14:30:47;;;;;;;9.8;5.6;;;;;;;10.08;57.87109;934.6517;;;;
2022/12/29 14:33:13;;;;;;;14.4;6.9;;;;;;;9.68;59.99512;934.6638;;;;
2022/12/29 14:35:38;;;;;;;20.9;8.4;;;;;;;9.58;60.35645;934.6597;;;;
2022/12/29 14:38:05;;;;;;;26.8;13.8;;;;;;;9.56;60.79785;934.5856;;;;
2022/12/29 14:40:30;;;;;;;22.5;11.5;;;;;;;9.62;61.36523;934.6071;;;;
2022/12/29 14:43:00;;;;;;;22.1;11.5;;;;;;;9.56;61.95996;934.6516;;;;
2022/12/29 14:45:28;;;;;;;20;11.4;;;;;;;9.52;62.8418;934.6116;;;;
2022/12/29 14:47:53;;;;;;;16;9.8;;;;;;;9.48;64.70605;934.593;;;;
2022/12/29 14:50:22;;;;;;;14.7;9.5;;;;;;;9.38;64.73633;934.6269;;;;
2022/12/29 14:52:47;;;;;;;16.1;8.6;;;;;;;9.31;65.48828;934.6326;;;;
2022/12/29 14:55:18;;;;;;;21.8;9.9;;;;;;;9.18;66.11719;934.6472;;;;
2022/12/29 14:57:45;;;;;;;13;7.8;;;;;;;8.92;67.45313;934.6144;;;;
2022/12/29 15:00:10;;;;;;;11.6;6.3;;;;;;;8.79;68.26172;934.6373;;;;
2022/12/29 15:02:40;;;;;;;10.2;7;;;;;;;8.57;69.51367;934.6475;;;;
2022/12/29 15:05:22;;;;;;;13.1;6.5;;;;;;;8.4;69.75684;934.6842;;;;
2022/12/29 15:07:48;;;;;;;14.6;7.2;;;;;;;8.17;70.34668;934.7142;;;;